Cosco Tengfei — HPMO — position and weather

sailwx.info

Track history (hours):
 
Tides and Currents Weather Stations Pressure Air Temp Water Temp Dewpoint Dewpoint Depression Visibility Wind Speed Wind Dir Waves Ship Positions

Cosco Tengfei

Last reported at 2014-Aug-06 20:27 UTC. Time now 2014-Aug-20 06:48 UTC.
Position N 01°11' E 103°41'.
Warning: this ship's position is 13 days out of date.

Length 183 m; draft 9.4 m.

Type: Cargo ship. MMSI: 355518000.

Date/timePositionNaut miles runAvg speedWind from/ knotsBaromVisibWave heightAir tempDewpointWater temp
2014-Aug-06 20:27N 01°11' E 103°41'8 8.4
2014-Aug-06 19:33N 01°10' E 103°48'10 9.7
2014-Aug-06 18:33N 01°14' E 103°57'5 4.7
2014-Aug-06 17:33N 01°17' E 104°01'0 0.0
2014-Aug-06 16:30N 01°17' E 104°01'0 0.0
2014-Aug-06 15:33N 01°17' E 104°01'0 0.0
2014-Aug-06 14:33N 01°17' E 104°01'0 0.0
2014-Aug-06 13:30N 01°17' E 104°01'0 0.0
2014-Aug-06 12:33N 01°17' E 104°01'0 0.0
2014-Aug-06 11:33N 01°17' E 104°01'0 0.1
2014-Aug-06 10:33N 01°17' E 104°01'0 0.0
2014-Aug-06 09:21N 01°17' E 104°01'0 0.0
2014-Aug-06 07:27N 01°17' E 104°01'0 0.0
2014-Aug-06 06:27N 01°17' E 104°01'0 0.0
2014-Aug-06 05:15N 01°17' E 104°01'0 0.0
2014-Aug-06 03:33N 01°17' E 104°01'0 0.1
2014-Aug-06 02:21N 01°17' E 104°01'0 0.0
2014-Aug-06 01:33N 01°17' E 104°01'0 0.1
2014-Aug-06 00:30N 01°17' E 104°01'1 0.6
2014-Aug-05 23:33N 01°18' E 104°00'2 2.2
2014-Aug-05 22:33N 01°15' E 103°60'10 9.5
2014-Aug-05 21:33N 01°17' E 104°09'  
2014-Aug-01 13:31N 22°36' E 116°57'1714.8
2014-Aug-01 12:24N 22°51' E 117°05'1714.8
2014-Aug-01 11:15N 23°04' E 117°16'1614.8
2014-Aug-01 10:12N 23°15' E 117°29'1015.0
2014-Aug-01 09:33N 23°21' E 117°38'1413.9
2014-Aug-01 08:33N 23°29' E 117°49'1414.1
2014-Aug-01 07:33N 23°38' E 118°01'1414.3
2014-Aug-01 06:33N 23°48' E 118°13'1514.5
2014-Aug-01 05:33N 23°57' E 118°25'1414.0
2014-Aug-01 04:33N 24°05' E 118°37'1513.8
2014-Aug-01 03:29N 24°15' E 118°50'1313.7
2014-Aug-01 02:32N 24°23' E 119°01'1313.7
2014-Aug-01 01:33N 24°32' E 119°12'1713.4
2014-Aug-01 00:18N 24°42' E 119°26'1115.2
2014-Jul-31 23:33N 24°50' E 119°36'3416.6
2014-Jul-31 21:30N 25°14' E 120°02'  
Track history (hours):
 
Tides and Currents Weather Stations Pressure Air Temp Water Temp Dewpoint Dewpoint Depression Visibility Wind Speed Wind Dir Waves Ship Positions

Cosco Tengfei

Last reported at 2014-Aug-06 20:27 UTC. Time now 2014-Aug-20 06:48 UTC.
Position N 01°11' E 103°41'.
Warning: this ship's position is 13 days out of date.

Length 183 m; draft 9.4 m.

Type: Cargo ship. MMSI: 355518000.

Date/timePositionNaut miles runAvg speedWind from/ knotsBaromVisibWave heightAir tempDewpointWater temp
2014-Aug-06 20:27N 01°11' E 103°41'8 8.4
2014-Aug-06 19:33N 01°10' E 103°48'10 9.7
2014-Aug-06 18:33N 01°14' E 103°57'5 4.7
2014-Aug-06 17:33N 01°17' E 104°01'0 0.0
2014-Aug-06 16:30N 01°17' E 104°01'0 0.0
2014-Aug-06 15:33N 01°17' E 104°01'0 0.0
2014-Aug-06 14:33N 01°17' E 104°01'0 0.0
2014-Aug-06 13:30N 01°17' E 104°01'0 0.0
2014-Aug-06 12:33N 01°17' E 104°01'0 0.0
2014-Aug-06 11:33N 01°17' E 104°01'0 0.1
2014-Aug-06 10:33N 01°17' E 104°01'0 0.0
2014-Aug-06 09:21N 01°17' E 104°01'0 0.0
2014-Aug-06 07:27N 01°17' E 104°01'0 0.0
2014-Aug-06 06:27N 01°17' E 104°01'0 0.0
2014-Aug-06 05:15N 01°17' E 104°01'0 0.0
2014-Aug-06 03:33N 01°17' E 104°01'0 0.1
2014-Aug-06 02:21N 01°17' E 104°01'0 0.0
2014-Aug-06 01:33N 01°17' E 104°01'0 0.1
2014-Aug-06 00:30N 01°17' E 104°01'1 0.6
2014-Aug-05 23:33N 01°18' E 104°00'2 2.2
2014-Aug-05 22:33N 01°15' E 103°60'10 9.5
2014-Aug-05 21:33N 01°17' E 104°09'  
2014-Aug-01 13:31N 22°36' E 116°57'1714.8
2014-Aug-01 12:24N 22°51' E 117°05'1714.8
2014-Aug-01 11:15N 23°04' E 117°16'1614.8
2014-Aug-01 10:12N 23°15' E 117°29'1015.0
2014-Aug-01 09:33N 23°21' E 117°38'1413.9
2014-Aug-01 08:33N 23°29' E 117°49'1414.1
2014-Aug-01 07:33N 23°38' E 118°01'1414.3
2014-Aug-01 06:33N 23°48' E 118°13'1514.5
2014-Aug-01 05:33N 23°57' E 118°25'1414.0
2014-Aug-01 04:33N 24°05' E 118°37'1513.8
2014-Aug-01 03:29N 24°15' E 118°50'1313.7
2014-Aug-01 02:32N 24°23' E 119°01'1313.7
2014-Aug-01 01:33N 24°32' E 119°12'1713.4
2014-Aug-01 00:18N 24°42' E 119°26'1115.2
2014-Jul-31 23:33N 24°50' E 119°36'3416.6
2014-Jul-31 21:30N 25°14' E 120°02'  

Dump ship's entire track history